Terminal Aerodrome Forecast
Issued by NWS Omaha/Valley, NE

Home | Current Version | Previous Version | Graphics & Text | Print | Product List | Glossary On
Versions: 1 2 3 4 5 6 7 8 9 10 11 12 13 14 15 16 17 18 19 20 21 22 23 24 25 26 27 28 29 30 31 32 33 34 35 36 37 38 39 40
000
FTUS43 KOAX 230124 AAA
TAFOFK
TAF AMD
KOFK 230124Z 2301/2324 05007KT P6SM SCT045 BKN150
      TEMPO 2302/2304 VRB20G30KT 2SM +TSRA BR OVC020CB
     FM230400 06010KT P6SM BKN080
      TEMPO 2306/2310 VRB20G35KT 2SM +TSRA BKN020CB
     FM231100 11010KT P6SM BKN010
     FM231600 15011G20KT P6SM BKN040=

USA.gov is the U.S. government's official web portal to all federal, state and local government web resources and services.